createdAt,value
2018-07-14T00:02:12.957Z,99838.17
2018-07-14T00:04:40.377Z,99845.34
2018-07-14T00:07:07.833Z,99841.23
2018-07-14T00:09:35.315Z,99841.13
2018-07-14T00:12:02.790Z,99841.91
2018-07-14T00:14:30.225Z,99850.89
2018-07-14T00:16:57.662Z,99846.59
2018-07-14T00:19:25.146Z,99842.41
2018-07-14T00:21:52.576Z,99845.80
2018-07-14T00:24:20.090Z,99843.19
2018-07-14T00:26:47.529Z,99843.05
2018-07-14T00:29:14.958Z,99839.00
2018-07-14T00:31:42.442Z,99840.70
2018-07-14T00:34:09.877Z,99841.87
2018-07-14T00:36:37.334Z,99841.48
2018-07-14T00:39:05.411Z,99839.78
2018-07-14T00:41:32.871Z,99839.38
2018-07-14T00:44:00.304Z,99840.55
2018-07-14T00:46:27.786Z,99843.41
2018-07-14T00:48:55.222Z,99843.68
2018-07-14T00:51:22.704Z,99841.86
2018-07-14T00:53:50.141Z,99840.02
2018-07-14T00:56:17.614Z,99843.55
2018-07-14T00:58:45.058Z,99838.31
2018-07-14T01:01:12.513Z,99837.55
2018-07-14T01:03:39.987Z,99841.18
2018-07-14T01:06:07.422Z,99838.20
2018-07-14T01:08:34.898Z,99833.89
2018-07-14T01:11:02.340Z,99830.23
2018-07-14T01:13:29.805Z,99832.46
2018-07-14T01:15:57.270Z,99830.76
2018-07-14T01:18:24.725Z,99838.95
2018-07-14T01:20:52.163Z,99844.04
2018-07-14T01:23:19.633Z,99847.70
2018-07-14T01:25:47.085Z,99841.81
2018-07-14T01:28:14.530Z,99843.23
2018-07-14T01:30:42.008Z,99842.33
2018-07-14T01:33:09.449Z,99841.91
2018-07-14T01:35:36.921Z,99837.61
2018-07-14T01:38:04.545Z,99845.42
2018-07-14T01:40:32.081Z,99845.83
2018-07-14T01:42:59.485Z,99840.09
2018-07-14T01:45:26.953Z,99841.89
2018-07-14T01:47:54.413Z,99838.88
2018-07-14T01:50:21.888Z,99843.17
2018-07-14T01:52:49.314Z,99841.10
2018-07-14T01:55:16.764Z,99844.34
2018-07-14T01:57:44.237Z,99843.70
2018-07-14T02:00:11.709Z,99842.91
2018-07-14T02:02:39.150Z,99837.84
2018-07-14T02:05:06.952Z,99841.87
2018-07-14T02:07:34.278Z,99845.23
2018-07-14T02:10:01.746Z,99850.48
2018-07-14T02:12:29.202Z,99844.47
2018-07-14T02:14:56.667Z,99854.51
2018-07-14T02:17:24.133Z,99856.31
2018-07-14T02:19:51.547Z,99847.19
2018-07-14T02:22:19.019Z,99851.64
2018-07-14T02:24:46.477Z,99849.79
2018-07-14T02:27:13.954Z,99848.23
2018-07-14T02:29:41.398Z,99853.81
2018-07-14T02:32:08.841Z,99853.81
2018-07-14T02:34:36.309Z,99853.81
2018-07-14T02:37:03.816Z,99862.14
2018-07-14T02:39:31.255Z,99862.66
2018-07-14T02:41:58.679Z,99858.64
2018-07-14T02:44:26.170Z,99865.53
2018-07-14T02:46:53.596Z,99856.30
2018-07-14T02:49:21.060Z,99861.88
2018-07-14T02:51:48.510Z,99861.48
2018-07-14T02:54:15.981Z,99857.58
2018-07-14T02:56:43.418Z,99861.33
2018-07-14T02:59:10.882Z,99863.80
2018-07-14T03:01:38.350Z,99858.84
2018-07-14T03:04:05.804Z,99860.27
2018-07-14T03:06:33.242Z,99862.38
2018-07-14T03:09:00.735Z,99868.86
2018-07-14T03:11:28.159Z,99861.86
2018-07-14T03:13:55.642Z,99862.07
2018-07-14T03:16:23.094Z,99859.33
2018-07-14T03:18:50.555Z,99851.77
2018-07-14T03:21:17.991Z,99853.33
2018-07-14T03:23:45.483Z,99851.10
2018-07-14T03:26:12.902Z,99851.63
2018-07-14T03:28:40.362Z,99847.97
2018-07-14T03:31:07.846Z,99848.48
2018-07-14T03:33:35.267Z,99855.28
2018-07-14T03:36:02.731Z,99855.01
2018-07-14T03:38:30.212Z,99849.92
2018-07-14T03:40:57.646Z,99851.63
2018-07-14T03:43:25.119Z,99848.12
2018-07-14T03:45:52.570Z,99844.83
2018-07-14T03:48:20.028Z,99844.19
2018-07-14T03:50:47.497Z,99844.70
2018-07-14T03:53:14.945Z,99845.34
2018-07-14T03:55:42.410Z,99845.34
2018-07-14T03:58:09.852Z,99848.22
2018-07-14T04:00:37.434Z,99853.83
2018-07-14T04:03:04.975Z,99849.89
2018-07-14T04:05:32.431Z,99850.17
2018-07-14T04:07:59.906Z,99850.81
2018-07-14T04:10:27.343Z,99847.67
2018-07-14T04:12:54.805Z,99847.55
2018-07-14T04:15:22.265Z,99847.55
2018-07-14T04:17:49.731Z,99845.70
2018-07-14T04:20:17.186Z,99846.61
2018-07-14T04:22:44.555Z,99849.35
2018-07-14T04:25:11.978Z,99845.05
2018-07-14T04:27:39.449Z,99848.29
2018-07-14T04:30:06.917Z,99845.94
2018-07-14T04:32:34.389Z,99854.38
2018-07-14T04:35:01.823Z,99849.30
2018-07-14T04:37:29.266Z,99848.53
2018-07-14T04:39:56.747Z,99847.59
2018-07-14T04:42:24.196Z,99846.95
2018-07-14T04:44:51.643Z,99850.45
2018-07-14T04:47:19.139Z,99848.93
2018-07-14T04:49:47.577Z,99849.17
2018-07-14T04:52:15.061Z,99846.04
2018-07-14T04:54:42.489Z,99848.27
2018-07-14T04:57:09.960Z,99847.74
2018-07-14T04:59:37.407Z,99846.04
2018-07-14T05:02:05.130Z,99851.49
2018-07-14T05:04:32.541Z,99852.28
2018-07-14T05:06:59.990Z,99844.97
2018-07-14T05:09:27.440Z,99850.06
2018-07-14T05:11:54.889Z,99859.17
2018-07-14T05:14:22.383Z,99857.74
2018-07-14T05:16:49.801Z,99852.13
2018-07-14T05:19:17.267Z,99852.23
2018-07-14T05:21:44.747Z,99850.95
2018-07-14T05:24:12.188Z,99854.45
2018-07-14T05:26:39.661Z,99856.16
2018-07-14T05:29:07.106Z,99847.45
2018-07-14T05:31:34.558Z,99847.45
2018-07-14T05:34:02.019Z,99846.77
2018-07-14T05:36:29.503Z,99849.36
2018-07-14T05:38:56.918Z,99846.50
2018-07-14T05:41:24.374Z,99852.90
2018-07-14T05:43:51.853Z,99852.38
2018-07-14T05:46:19.282Z,99853.02
2018-07-14T05:48:46.758Z,99847.17
2018-07-14T05:51:14.242Z,99843.52
2018-07-14T05:53:41.679Z,99852.50
2018-07-14T05:56:09.113Z,99858.75
2018-07-14T05:58:36.590Z,99855.09
2018-07-14T06:01:04.047Z,99859.39
2018-07-14T06:03:31.505Z,99857.84
2018-07-14T06:05:58.953Z,99865.12
2018-07-14T06:08:26.414Z,99871.52
2018-07-14T06:10:53.863Z,99875.94
2018-07-14T06:13:21.318Z,99871.63
2018-07-14T06:15:48.793Z,99878.80
2018-07-14T06:18:16.235Z,99870.84
2018-07-14T06:20:43.689Z,99875.41
2018-07-14T06:23:11.157Z,99869.81
2018-07-14T06:25:38.617Z,99874.23
2018-07-14T06:28:06.073Z,99870.45
2018-07-14T06:30:33.423Z,99879.04
2018-07-14T06:33:00.890Z,99872.43
2018-07-14T06:35:28.331Z,99871.79
2018-07-14T06:37:55.806Z,99875.30
2018-07-14T06:40:23.143Z,99865.39
2018-07-14T06:42:50.618Z,99862.25
2018-07-14T06:45:18.067Z,99865.27
2018-07-14T06:47:45.563Z,99867.77
2018-07-14T06:50:13.017Z,99863.20
2018-07-14T06:52:40.450Z,99870.23
2018-07-14T06:55:07.913Z,99867.61
2018-07-14T06:57:35.346Z,99866.06
2018-07-14T07:00:02.904Z,99864.11
2018-07-14T07:02:30.269Z,99868.77
2018-07-14T07:04:57.726Z,99871.00
2018-07-14T07:07:25.197Z,99871.91
2018-07-14T07:09:52.674Z,99869.84
2018-07-14T07:12:20.094Z,99875.14
2018-07-14T07:14:47.574Z,99868.41
2018-07-14T07:17:15.026Z,99872.06
2018-07-14T07:19:55.547Z,99876.63
2018-07-14T07:22:23.033Z,99870.11
2018-07-14T07:24:50.510Z,99878.70
2018-07-14T07:27:17.965Z,99871.39
2018-07-14T07:29:45.394Z,99877.27
2018-07-14T07:32:12.884Z,99870.75
2018-07-14T07:34:40.389Z,99874.41
2018-07-14T07:37:07.787Z,99881.05
2018-07-14T07:39:35.129Z,99881.84
2018-07-14T07:42:02.603Z,99884.98
2018-07-14T07:44:30.074Z,99879.77
2018-07-14T07:46:57.530Z,99879.77
2018-07-14T07:49:24.964Z,99883.67
2018-07-14T07:51:52.426Z,99883.03
2018-07-14T07:54:19.879Z,99879.80
2018-07-14T07:56:47.378Z,99880.91
2018-07-14T07:59:14.833Z,99889.78
2018-07-14T08:01:42.275Z,99888.44
2018-07-14T08:04:09.605Z,99892.92
2018-07-14T08:06:37.056Z,99889.02
2018-07-14T08:09:05.030Z,99890.18
2018-07-14T08:11:32.399Z,99887.39
2018-07-14T08:13:59.868Z,99888.59
2018-07-14T08:16:27.297Z,99886.89
2018-07-14T08:18:54.758Z,99890.25
2018-07-14T08:21:22.234Z,99892.10
2018-07-14T08:23:49.655Z,99889.76
2018-07-14T08:26:17.171Z,99895.76
2018-07-14T08:28:44.574Z,99890.89
2018-07-14T08:31:12.045Z,99893.51
2018-07-14T08:33:39.535Z,99890.25
2018-07-14T08:36:06.963Z,99890.70
2018-07-14T08:38:34.433Z,99888.55
2018-07-14T08:41:01.870Z,99888.94
2018-07-14T08:43:29.330Z,99885.95
2018-07-14T08:45:56.802Z,99892.14
2018-07-14T08:48:24.246Z,99890.98
2018-07-14T08:50:51.745Z,99889.13
2018-07-14T08:53:19.150Z,99893.05
2018-07-14T08:55:46.619Z,99886.59
2018-07-14T08:58:14.111Z,99882.66
2018-07-14T09:00:41.553Z,99885.68
2018-07-14T09:03:09.007Z,99888.66
2018-07-14T09:05:36.454Z,99886.08
2018-07-14T09:08:03.894Z,99896.47
2018-07-14T09:10:31.365Z,99899.88
2018-07-14T09:12:58.806Z,99886.71
2018-07-14T09:15:26.274Z,99883.30
2018-07-14T09:17:53.719Z,99883.30
2018-07-14T09:20:21.215Z,99886.59
2018-07-14T09:22:48.658Z,99886.23
2018-07-14T09:25:16.117Z,99887.11
2018-07-14T09:27:43.571Z,99878.52
2018-07-14T09:30:11.061Z,99878.24
2018-07-14T09:32:38.509Z,99878.52
2018-07-14T09:35:05.922Z,99880.59
2018-07-14T09:37:33.400Z,99879.83
2018-07-14T09:40:00.846Z,99874.71
2018-07-14T09:42:28.570Z,99872.27
2018-07-14T09:44:56.232Z,99868.89
2018-07-14T09:47:23.656Z,99874.09
2018-07-14T09:49:51.071Z,99866.39
2018-07-14T09:52:18.535Z,99868.70
2018-07-14T09:54:46.012Z,99873.70
2018-07-14T09:57:13.439Z,99872.27
2018-07-14T09:59:40.910Z,99870.30
2018-07-14T10:02:08.378Z,99861.45
2018-07-14T10:04:35.817Z,99874.71
2018-07-14T10:07:03.303Z,99861.73
2018-07-14T10:09:30.742Z,99861.61
2018-07-14T10:11:58.462Z,99857.03
2018-07-14T10:14:26.288Z,99850.78
2018-07-14T10:16:53.616Z,99853.38
2018-07-14T10:19:21.073Z,99847.92
2018-07-14T10:21:48.538Z,99845.17
2018-07-14T10:24:16.028Z,99849.47
2018-07-14T10:26:43.465Z,99848.71
2018-07-14T10:29:10.954Z,99844.69
2018-07-14T10:31:38.371Z,99846.39
2018-07-14T10:34:05.998Z,99837.00
2018-07-14T10:36:33.295Z,99841.42
2018-07-14T10:39:00.731Z,99840.14
2018-07-14T10:41:28.212Z,99848.73
2018-07-14T10:43:55.650Z,99842.48
2018-07-14T10:46:23.122Z,99840.41
2018-07-14T10:48:50.574Z,99841.97
2018-07-14T10:51:18.063Z,99834.31
2018-07-14T10:53:45.494Z,99843.55
2018-07-14T10:56:12.947Z,99838.73
2018-07-14T10:58:40.415Z,99833.52
2018-07-14T11:01:07.896Z,99823.61
2018-07-14T11:03:35.307Z,99823.88
2018-07-14T11:06:02.776Z,99824.67
2018-07-14T11:08:30.227Z,99820.11
2018-07-14T11:10:57.693Z,99821.02
2018-07-14T11:13:25.125Z,99821.17
2018-07-14T11:15:52.612Z,99816.13
2018-07-14T11:18:20.068Z,99818.99
2018-07-14T11:20:47.503Z,99811.34
2018-07-14T11:23:14.962Z,99808.59
2018-07-14T11:25:42.462Z,99812.25
2018-07-14T11:28:09.883Z,99808.73
2018-07-14T11:30:37.358Z,99812.91
2018-07-14T11:33:04.793Z,99805.25
2018-07-14T11:35:32.261Z,99810.99
2018-07-14T11:37:59.698Z,99803.19
2018-07-14T11:40:27.174Z,99803.30
2018-07-14T11:42:54.606Z,99802.66
2018-07-14T11:45:22.093Z,99811.63
2018-07-14T11:47:49.587Z,99805.91
2018-07-14T11:50:17.083Z,99799.27
2018-07-14T11:52:44.447Z,99802.02
2018-07-14T11:55:11.917Z,99792.90
2018-07-14T11:57:39.378Z,99792.11
2018-07-14T12:00:06.986Z,99797.98
2018-07-14T12:02:34.536Z,99787.02
2018-07-14T12:05:01.952Z,99782.22
2018-07-14T12:07:29.387Z,99777.92
2018-07-14T12:09:56.876Z,99775.59
2018-07-14T12:12:24.313Z,99779.22
2018-07-14T12:14:51.801Z,99774.16
2018-07-14T12:17:19.270Z,99771.41
2018-07-14T12:19:47.042Z,99763.45
2018-07-14T12:22:14.581Z,99765.67
2018-07-14T12:24:42.038Z,99766.47
2018-07-14T12:27:09.498Z,99768.16
2018-07-14T12:29:36.923Z,99768.05
2018-07-14T12:32:04.452Z,99767.53
2018-07-14T12:34:31.853Z,99763.34
2018-07-14T12:36:59.338Z,99763.34
2018-07-14T12:39:26.757Z,99760.48
2018-07-14T12:41:54.207Z,99755.01
2018-07-14T12:44:21.666Z,99757.11
2018-07-14T12:46:49.162Z,99762.33
2018-07-14T12:49:16.577Z,99761.80
2018-07-14T12:51:44.053Z,99761.95
2018-07-14T12:54:11.495Z,99760.52
2018-07-14T12:56:38.958Z,99753.84
2018-07-14T12:59:06.426Z,99749.80
2018-07-14T13:01:33.862Z,99740.55
2018-07-14T13:04:01.333Z,99739.77
2018-07-14T13:06:28.879Z,99735.76
2018-07-14T13:08:56.243Z,99734.97
2018-07-14T13:11:23.794Z,99729.50
2018-07-14T13:13:51.166Z,99731.05
2018-07-14T13:16:18.602Z,99730.41
2018-07-14T13:18:46.073Z,99733.69
2018-07-14T13:21:14.533Z,99733.69
2018-07-14T13:23:42.041Z,99736.02
2018-07-14T13:26:09.457Z,99725.45
2018-07-14T13:28:36.939Z,99720.52
2018-07-14T13:31:05.439Z,99722.33
2018-07-14T13:33:32.851Z,99721.69
2018-07-14T13:36:00.318Z,99720.25
2018-07-14T13:38:27.766Z,99721.69
2018-07-14T13:40:55.256Z,99713.73
2018-07-14T13:43:22.689Z,99727.04
2018-07-14T13:45:50.170Z,99712.81
2018-07-14T13:48:17.586Z,99711.64
2018-07-14T13:50:45.061Z,99706.05
2018-07-14T13:53:12.527Z,99710.73
2018-07-14T13:55:39.975Z,99707.87
2018-07-14T13:58:07.434Z,99703.19
2018-07-14T14:00:34.901Z,99696.02
2018-07-14T14:03:02.339Z,99693.91
2018-07-14T14:05:29.790Z,99690.78
2018-07-14T14:07:57.258Z,99690.92
2018-07-14T14:10:24.731Z,99684.66
2018-07-14T14:12:52.165Z,99679.33
2018-07-14T14:15:19.623Z,99690.27
2018-07-14T14:17:47.075Z,99687.02
2018-07-14T14:20:14.666Z,99675.66
2018-07-14T14:22:42.018Z,99686.61
2018-07-14T14:25:09.463Z,99685.06
2018-07-14T14:27:36.949Z,99693.78
2018-07-14T14:30:04.623Z,99686.35
2018-07-14T14:32:32.343Z,99679.83
2018-07-14T14:34:59.891Z,99680.87
2018-07-14T14:37:27.454Z,99684.00
2018-07-14T14:39:55.052Z,99679.06
2018-07-14T14:42:22.520Z,99677.62
2018-07-14T14:44:49.998Z,99676.30
2018-07-14T14:47:17.445Z,99662.49
2018-07-14T14:49:44.868Z,99674.11
2018-07-14T14:52:12.330Z,99679.84
2018-07-14T14:54:39.799Z,99672.15
2018-07-14T14:57:07.271Z,99668.13
2018-07-14T14:59:34.769Z,99679.61
2018-07-14T15:02:02.184Z,99666.96
2018-07-14T15:04:29.581Z,99671.27
2018-07-14T15:06:57.058Z,99669.04
2018-07-14T15:09:24.502Z,99659.64
2018-07-14T15:11:51.973Z,99654.95
2018-07-14T15:14:19.428Z,99655.09
2018-07-14T15:16:46.923Z,99660.95
2018-07-14T15:19:14.344Z,99664.61
2018-07-14T15:21:41.802Z,99656.63
2018-07-14T15:24:09.199Z,99660.03
2018-07-14T15:26:36.614Z,99659.65
2018-07-14T15:29:04.221Z,99666.28
2018-07-14T15:31:31.729Z,99663.56
2018-07-14T15:33:59.194Z,99664.47
2018-07-14T15:36:26.622Z,99666.69
2018-07-14T15:38:54.088Z,99660.95
2018-07-14T15:41:21.573Z,99657.41
2018-07-14T15:43:49.085Z,99655.97
2018-07-14T15:46:16.459Z,99664.34
2018-07-14T15:48:43.939Z,99655.84
2018-07-14T15:51:11.370Z,99652.70
2018-07-14T15:53:38.849Z,99653.12
2018-07-14T15:56:06.307Z,99649.72
2018-07-14T15:58:33.766Z,99648.39
2018-07-14T16:01:01.255Z,99651.15
2018-07-14T16:03:28.670Z,99654.81
2018-07-14T16:05:56.124Z,99649.33
2018-07-14T16:08:23.615Z,99651.66
2018-07-14T16:10:51.042Z,99653.75
2018-07-14T16:13:18.505Z,99648.91
2018-07-14T16:15:46.010Z,99653.61
2018-07-14T16:18:13.420Z,99647.61
2018-07-14T16:20:40.871Z,99638.47
2018-07-14T16:23:08.217Z,99646.44
2018-07-14T16:25:35.695Z,99649.42
2018-07-14T16:28:04.161Z,99642.24
2018-07-14T16:30:31.667Z,99643.29
2018-07-14T16:32:59.066Z,99647.06
2018-07-14T16:35:26.552Z,99646.67
2018-07-14T16:37:53.998Z,99634.68
2018-07-14T16:40:21.475Z,99640.42
2018-07-14T16:42:49.006Z,99641.59
2018-07-14T16:45:16.349Z,99636.76
2018-07-14T16:47:43.947Z,99631.16
2018-07-14T16:50:11.410Z,99634.03
2018-07-14T16:52:38.969Z,99627.89
2018-07-14T16:55:06.446Z,99628.57
2018-07-14T16:57:33.891Z,99634.95
2018-07-14T17:00:01.310Z,99631.05
2018-07-14T17:02:29.033Z,99634.30
2018-07-14T17:04:56.450Z,99630.67
2018-07-14T17:07:24.037Z,99634.98
2018-07-14T17:09:51.558Z,99644.34
2018-07-14T17:12:19.027Z,99640.83
2018-07-14T17:14:46.483Z,99637.84
2018-07-14T17:17:13.952Z,99630.78
2018-07-14T17:19:41.377Z,99632.22
2018-07-14T17:22:08.879Z,99629.74
2018-07-14T17:24:36.332Z,99632.75
2018-07-14T17:27:03.789Z,99634.05
2018-07-14T17:29:31.210Z,99623.24
2018-07-14T17:31:58.694Z,99633.14
2018-07-14T17:34:26.129Z,99634.72
2018-07-14T17:36:53.680Z,99628.05
2018-07-14T17:39:21.026Z,99625.86
2018-07-14T17:41:48.506Z,99624.92
2018-07-14T17:44:16.027Z,99617.89
2018-07-14T17:46:43.403Z,99616.57
2018-07-14T17:49:10.864Z,99620.87
2018-07-14T17:51:38.399Z,99615.03
2018-07-14T17:54:05.790Z,99612.80
2018-07-14T17:56:33.226Z,99619.97
2018-07-14T17:59:00.715Z,99620.12
2018-07-14T18:01:28.146Z,99617.25
2018-07-14T18:03:55.765Z,99620.87
2018-07-14T18:06:23.270Z,99618.69
2018-07-14T18:08:50.740Z,99617.89
2018-07-14T18:11:18.197Z,99615.56
2018-07-14T18:13:45.529Z,99620.63
2018-07-14T18:16:12.985Z,99622.05
2018-07-14T18:18:40.471Z,99629.38
2018-07-14T18:21:07.919Z,99624.67
2018-07-14T18:23:35.386Z,99624.92
2018-07-14T18:26:02.860Z,99627.68
2018-07-14T18:28:30.273Z,99629.23
2018-07-14T18:30:57.754Z,99632.09
2018-07-14T18:33:25.192Z,99624.81
2018-07-14T18:35:52.665Z,99623.91
2018-07-14T18:38:20.101Z,99626.25
2018-07-14T18:40:47.586Z,99622.73
2018-07-14T18:43:15.024Z,99632.63
2018-07-14T18:52:38.322Z,99638.64
2018-07-14T18:55:05.779Z,99640.34
2018-07-14T18:57:33.165Z,99640.98
2018-07-14T19:00:00.606Z,99643.85
2018-07-14T19:02:28.063Z,99641.88
2018-07-14T19:04:55.529Z,99641.77
2018-07-14T19:07:22.990Z,99645.28
2018-07-14T19:09:50.430Z,99650.49
2018-07-14T19:12:17.889Z,99649.05
2018-07-14T19:14:45.347Z,99652.34
2018-07-14T19:17:12.857Z,99658.73
2018-07-14T19:19:40.310Z,99653.78
2018-07-14T19:22:07.742Z,99654.42
2018-07-14T19:24:35.191Z,99654.28
2018-07-14T19:27:02.650Z,99660.16
2018-07-14T19:29:30.085Z,99661.34
2018-07-14T19:31:57.562Z,99662.12
2018-07-14T19:34:25.039Z,99660.70
2018-07-14T19:36:52.504Z,99663.30
2018-07-14T19:39:19.910Z,99658.47
2018-07-14T19:41:47.371Z,99666.69
2018-07-14T19:44:15.039Z,99668.90
2018-07-14T19:47:54.754Z,99670.34
2018-07-14T19:50:22.339Z,99672.43
2018-07-14T19:52:50.023Z,99676.99
2018-07-14T19:55:17.438Z,99674.89
2018-07-14T19:57:45.916Z,99679.84
2018-07-14T20:00:13.351Z,99678.94
2018-07-14T20:02:40.874Z,99685.08
2018-07-14T20:05:08.351Z,99691.20
2018-07-14T20:07:35.823Z,99685.08
2018-07-14T20:10:03.261Z,99688.33
2018-07-14T20:12:30.707Z,99682.73
2018-07-14T20:14:58.178Z,99682.33
2018-07-14T20:17:25.647Z,99685.34
2018-07-14T20:19:53.078Z,99688.97
2018-07-14T20:22:20.550Z,99690.14
2018-07-14T20:24:54.347Z,99693.27
2018-07-14T20:27:21.835Z,99690.82
2018-07-14T20:29:51.360Z,99694.70
2018-07-14T20:32:19.132Z,99689.11
2018-07-14T20:34:46.680Z,99697.99
2018-07-14T20:37:14.080Z,99690.94
2018-07-14T20:39:41.587Z,99693.16
2018-07-14T20:42:09.059Z,99690.94
2018-07-14T20:44:36.438Z,99696.67
2018-07-14T20:47:03.922Z,99692.89
2018-07-14T20:49:31.379Z,99694.59
2018-07-14T20:51:58.870Z,99695.50
2018-07-14T20:54:26.284Z,99695.38
2018-07-14T20:56:53.738Z,99699.27
2018-07-14T20:59:21.197Z,99696.67
2018-07-14T21:01:48.658Z,99698.37
2018-07-14T21:04:16.120Z,99693.80
2018-07-14T21:06:43.567Z,99697.58
2018-07-14T21:09:11.074Z,99700.70
2018-07-14T21:11:38.469Z,99699.02
2018-07-14T21:14:05.950Z,99703.33
2018-07-14T21:16:33.426Z,99703.47
2018-07-14T21:19:00.846Z,99701.51
2018-07-14T21:21:28.342Z,99705.30
2018-07-14T21:23:55.780Z,99705.55
2018-07-14T21:26:23.334Z,99703.59
2018-07-14T21:28:50.671Z,99703.97
2018-07-14T21:31:18.206Z,99709.71
2018-07-14T21:33:45.597Z,99706.20
2018-07-14T21:36:13.072Z,99712.47
2018-07-14T21:38:40.493Z,99713.11
2018-07-14T21:41:07.982Z,99717.16
2018-07-14T21:43:35.430Z,99714.92
2018-07-14T21:46:02.875Z,99719.49
2018-07-14T21:48:30.342Z,99719.64
2018-07-14T21:50:57.812Z,99718.84
2018-07-14T21:53:25.286Z,99716.12
2018-07-14T21:55:52.737Z,99717.41
2018-07-14T21:58:20.167Z,99721.86
2018-07-14T22:00:47.640Z,99725.49
2018-07-14T22:03:15.078Z,99724.73
2018-07-14T22:05:42.539Z,99724.20
2018-07-14T22:08:09.999Z,99723.41
2018-07-14T22:10:37.489Z,99723.41
2018-07-14T22:13:07.017Z,99729.03
2018-07-14T22:15:35.447Z,99721.98
2018-07-14T22:20:48.062Z,99723.67
2018-07-14T22:23:15.521Z,99725.09
2018-07-14T22:25:42.939Z,99723.66
2018-07-14T22:28:10.361Z,99726.16
2018-07-14T22:30:37.790Z,99724.08
2018-07-14T22:33:05.291Z,99727.45
2018-07-14T22:35:32.812Z,99728.62
2018-07-14T22:38:00.306Z,99725.89
2018-07-14T22:40:27.782Z,99717.67
2018-07-14T22:42:55.187Z,99723.67
2018-07-14T22:45:22.669Z,99717.55
2018-07-14T22:47:50.119Z,99719.52
2018-07-14T22:50:17.755Z,99718.47
2018-07-14T22:52:45.336Z,99723.55
2018-07-14T22:55:12.724Z,99721.59
2018-07-14T22:57:40.125Z,99718.99
2018-07-14T23:00:07.601Z,99716.38
2018-07-14T23:02:35.169Z,99714.27
2018-07-14T23:05:02.638Z,99715.45
2018-07-14T23:07:30.259Z,99715.19
2018-07-14T23:09:57.619Z,99720.42
2018-07-14T23:12:25.785Z,99714.53
2018-07-14T23:14:53.134Z,99711.41
2018-07-14T23:17:20.595Z,99712.72
2018-07-14T23:19:48.090Z,99710.88
2018-07-14T23:22:15.504Z,99708.93
2018-07-14T23:24:43.350Z,99707.23
2018-07-14T23:27:11.160Z,99702.94
2018-07-14T23:29:38.510Z,99709.45
2018-07-14T23:32:06.026Z,99709.47
2018-07-14T23:34:33.406Z,99707.77
2018-07-14T23:37:00.998Z,99703.08
2018-07-14T23:39:28.317Z,99702.55
2018-07-14T23:41:56.275Z,99700.58
2018-07-14T23:44:23.931Z,99704.49
2018-07-14T23:46:51.786Z,99701.09
2018-07-14T23:49:19.191Z,99705.02
2018-07-14T23:51:46.622Z,99702.14
2018-07-14T23:54:14.113Z,99703.84
2018-07-14T23:56:41.583Z,99702.52
2018-07-14T23:59:09.030Z,99705.02
